sensor_id;sensor_type;location;lat;lon;timestamp;temperature;humidity
13115;DHT22;6623;52.120;8.660;2023-07-31T00:01:59;24.30;52.40
13115;DHT22;6623;52.120;8.660;2023-07-31T00:04:25;24.30;52.50
13115;DHT22;6623;52.120;8.660;2023-07-31T00:06:53;24.30;52.50
13115;DHT22;6623;52.120;8.660;2023-07-31T00:09:19;24.30;52.50
13115;DHT22;6623;52.120;8.660;2023-07-31T00:11:44;24.30;52.50
13115;DHT22;6623;52.120;8.660;2023-07-31T00:14:10;24.30;52.50
13115;DHT22;6623;52.120;8.660;2023-07-31T00:16:35;24.30;52.50
13115;DHT22;6623;52.120;8.660;2023-07-31T00:19:01;24.30;52.50
13115;DHT22;6623;52.120;8.660;2023-07-31T00:21:26;24.30;52.50
13115;DHT22;6623;52.120;8.660;2023-07-31T00:23:52;24.40;52.60
13115;DHT22;6623;52.120;8.660;2023-07-31T00:26:17;24.40;52.60
13115;DHT22;6623;52.120;8.660;2023-07-31T00:28:43;24.30;52.60
13115;DHT22;6623;52.120;8.660;2023-07-31T00:31:08;24.30;52.60
13115;DHT22;6623;52.120;8.660;2023-07-31T00:33:35;24.30;52.60
13115;DHT22;6623;52.120;8.660;2023-07-31T00:36:01;24.30;52.60
13115;DHT22;6623;52.120;8.660;2023-07-31T00:38:26;24.40;52.60
13115;DHT22;6623;52.120;8.660;2023-07-31T00:40:52;24.30;52.60
13115;DHT22;6623;52.120;8.660;2023-07-31T00:43:17;24.30;52.60
13115;DHT22;6623;52.120;8.660;2023-07-31T00:45:44;24.30;52.60
13115;DHT22;6623;52.120;8.660;2023-07-31T00:48:09;24.30;52.60
13115;DHT22;6623;52.120;8.660;2023-07-31T00:50:35;24.30;52.70
13115;DHT22;6623;52.120;8.660;2023-07-31T00:53:01;24.30;52.70
13115;DHT22;6623;52.120;8.660;2023-07-31T00:55:26;24.30;52.70
13115;DHT22;6623;52.120;8.660;2023-07-31T00:57:52;24.30;52.70
13115;DHT22;6623;52.120;8.660;2023-07-31T01:00:21;24.30;52.70
13115;DHT22;6623;52.120;8.660;2023-07-31T01:02:47;24.30;52.70
13115;DHT22;6623;52.120;8.660;2023-07-31T01:05:13;24.30;52.70
13115;DHT22;6623;52.120;8.660;2023-07-31T01:07:42;24.30;52.70
13115;DHT22;6623;52.120;8.660;2023-07-31T01:13:03;24.30;52.70
13115;DHT22;6623;52.120;8.660;2023-07-31T01:15:29;24.30;52.70
13115;DHT22;6623;52.120;8.660;2023-07-31T01:17:54;24.30;52.70
13115;DHT22;6623;52.120;8.660;2023-07-31T01:20:24;24.30;52.80
13115;DHT22;6623;52.120;8.660;2023-07-31T01:28:13;24.30;52.80
13115;DHT22;6623;52.120;8.660;2023-07-31T01:30:44;24.30;52.80
13115;DHT22;6623;52.120;8.660;2023-07-31T01:33:11;24.30;52.90
13115;DHT22;6623;52.120;8.660;2023-07-31T01:35:37;24.30;52.80
13115;DHT22;6623;52.120;8.660;2023-07-31T01:38:05;24.30;52.90
13115;DHT22;6623;52.120;8.660;2023-07-31T01:40:30;24.30;52.80
13115;DHT22;6623;52.120;8.660;2023-07-31T01:42:56;24.30;52.90
13115;DHT22;6623;52.120;8.660;2023-07-31T01:45:21;24.40;52.90
13115;DHT22;6623;52.120;8.660;2023-07-31T01:47:47;24.30;52.90
13115;DHT22;6623;52.120;8.660;2023-07-31T01:50:12;24.40;53.00
13115;DHT22;6623;52.120;8.660;2023-07-31T01:52:38;24.30;52.90
13115;DHT22;6623;52.120;8.660;2023-07-31T01:55:04;24.30;53.00
13115;DHT22;6623;52.120;8.660;2023-07-31T01:57:29;24.30;53.00
13115;DHT22;6623;52.120;8.660;2023-07-31T01:59:55;24.30;53.00
13115;DHT22;6623;52.120;8.660;2023-07-31T02:02:21;24.40;53.10
13115;DHT22;6623;52.120;8.660;2023-07-31T02:04:48;24.40;53.10
13115;DHT22;6623;52.120;8.660;2023-07-31T02:07:14;24.40;53.10
13115;DHT22;6623;52.120;8.660;2023-07-31T02:09:40;24.30;53.00
13115;DHT22;6623;52.120;8.660;2023-07-31T02:12:05;24.40;53.00
13115;DHT22;6623;52.120;8.660;2023-07-31T02:14:34;24.30;53.00
13115;DHT22;6623;52.120;8.660;2023-07-31T02:16:59;24.30;53.00
13115;DHT22;6623;52.120;8.660;2023-07-31T02:19:25;24.30;53.00
13115;DHT22;6623;52.120;8.660;2023-07-31T02:21:50;24.30;53.00
13115;DHT22;6623;52.120;8.660;2023-07-31T02:24:16;24.30;53.00
13115;DHT22;6623;52.120;8.660;2023-07-31T02:26:41;24.40;53.10
13115;DHT22;6623;52.120;8.660;2023-07-31T02:29:08;24.30;53.00
13115;DHT22;6623;52.120;8.660;2023-07-31T02:31:33;24.40;53.10
13115;DHT22;6623;52.120;8.660;2023-07-31T02:33:59;24.40;53.10
13115;DHT22;6623;52.120;8.660;2023-07-31T02:36:24;24.30;53.00
13115;DHT22;6623;52.120;8.660;2023-07-31T02:38:50;24.40;53.10
13115;DHT22;6623;52.120;8.660;2023-07-31T02:41:15;24.40;53.10
13115;DHT22;6623;52.120;8.660;2023-07-31T02:43:41;24.30;53.00
13115;DHT22;6623;52.120;8.660;2023-07-31T02:46:06;24.30;53.00
13115;DHT22;6623;52.120;8.660;2023-07-31T02:48:32;24.30;53.00
13115;DHT22;6623;52.120;8.660;2023-07-31T02:50:57;24.40;53.10
13115;DHT22;6623;52.120;8.660;2023-07-31T02:53:23;24.40;53.10
13115;DHT22;6623;52.120;8.660;2023-07-31T02:55:48;24.30;53.00
13115;DHT22;6623;52.120;8.660;2023-07-31T02:58:14;24.30;53.00
13115;DHT22;6623;52.120;8.660;2023-07-31T03:00:43;24.30;53.10
13115;DHT22;6623;52.120;8.660;2023-07-31T03:03:09;24.30;53.00
13115;DHT22;6623;52.120;8.660;2023-07-31T03:05:34;24.30;53.00
13115;DHT22;6623;52.120;8.660;2023-07-31T03:08:01;24.40;53.10
13115;DHT22;6623;52.120;8.660;2023-07-31T03:10:27;24.40;53.10
13115;DHT22;6623;52.120;8.660;2023-07-31T03:12:52;24.30;53.00
13115;DHT22;6623;52.120;8.660;2023-07-31T03:15:18;24.40;53.10
13115;DHT22;6623;52.120;8.660;2023-07-31T03:17:43;24.40;53.10
13115;DHT22;6623;52.120;8.660;2023-07-31T03:20:09;24.30;53.10
13115;DHT22;6623;52.120;8.660;2023-07-31T03:22:35;24.40;53.10
13115;DHT22;6623;52.120;8.660;2023-07-31T03:25:02;24.30;53.10
13115;DHT22;6623;52.120;8.660;2023-07-31T03:27:27;24.40;53.10
13115;DHT22;6623;52.120;8.660;2023-07-31T03:29:53;24.30;53.10
13115;DHT22;6623;52.120;8.660;2023-07-31T03:32:19;24.30;53.10
13115;DHT22;6623;52.120;8.660;2023-07-31T03:34:44;24.30;53.00
13115;DHT22;6623;52.120;8.660;2023-07-31T03:37:10;24.30;53.10
13115;DHT22;6623;52.120;8.660;2023-07-31T03:39:35;24.40;53.10
13115;DHT22;6623;52.120;8.660;2023-07-31T03:42:01;24.40;53.10
13115;DHT22;6623;52.120;8.660;2023-07-31T03:44:26;24.40;53.10
13115;DHT22;6623;52.120;8.660;2023-07-31T03:46:52;24.30;53.00
13115;DHT22;6623;52.120;8.660;2023-07-31T03:49:18;24.30;53.10
13115;DHT22;6623;52.120;8.660;2023-07-31T03:51:43;24.40;53.10
13115;DHT22;6623;52.120;8.660;2023-07-31T03:54:09;24.30;53.10
13115;DHT22;6623;52.120;8.660;2023-07-31T03:56:34;24.30;53.10
13115;DHT22;6623;52.120;8.660;2023-07-31T03:59:00;24.40;53.10
13115;DHT22;6623;52.120;8.660;2023-07-31T04:01:26;24.30;53.10
13115;DHT22;6623;52.120;8.660;2023-07-31T04:03:51;24.30;53.10
13115;DHT22;6623;52.120;8.660;2023-07-31T04:06:17;24.30;53.10
13115;DHT22;6623;52.120;8.660;2023-07-31T04:08:44;24.30;53.10
13115;DHT22;6623;52.120;8.660;2023-07-31T04:11:10;24.30;53.10
13115;DHT22;6623;52.120;8.660;2023-07-31T04:13:36;24.30;53.10
13115;DHT22;6623;52.120;8.660;2023-07-31T04:16:02;24.40;53.20
13115;DHT22;6623;52.120;8.660;2023-07-31T04:18:27;24.30;53.20
13115;DHT22;6623;52.120;8.660;2023-07-31T04:20:53;24.30;53.20
13115;DHT22;6623;52.120;8.660;2023-07-31T04:23:18;24.30;53.80
13115;DHT22;6623;52.120;8.660;2023-07-31T04:25:44;24.30;53.20
13115;DHT22;6623;52.120;8.660;2023-07-31T04:28:10;24.30;53.30
13115;DHT22;6623;52.120;8.660;2023-07-31T04:30:35;24.30;53.30
13115;DHT22;6623;52.120;8.660;2023-07-31T04:33:01;24.30;53.30
13115;DHT22;6623;52.120;8.660;2023-07-31T04:35:27;24.30;53.30
13115;DHT22;6623;52.120;8.660;2023-07-31T04:37:52;24.30;53.30
13115;DHT22;6623;52.120;8.660;2023-07-31T04:40:18;24.30;53.30
13115;DHT22;6623;52.120;8.660;2023-07-31T04:42:44;24.30;53.30
13115;DHT22;6623;52.120;8.660;2023-07-31T04:45:09;24.30;53.40
13115;DHT22;6623;52.120;8.660;2023-07-31T04:47:35;24.30;53.80
13115;DHT22;6623;52.120;8.660;2023-07-31T04:50:00;24.30;53.40
13115;DHT22;6623;52.120;8.660;2023-07-31T04:52:26;24.30;53.40
13115;DHT22;6623;52.120;8.660;2023-07-31T04:54:51;24.30;53.40
13115;DHT22;6623;52.120;8.660;2023-07-31T04:57:17;24.30;53.50
13115;DHT22;6623;52.120;8.660;2023-07-31T04:59:42;24.30;53.50
13115;DHT22;6623;52.120;8.660;2023-07-31T05:02:08;24.30;53.50
13115;DHT22;6623;52.120;8.660;2023-07-31T05:04:34;24.30;53.50
13115;DHT22;6623;52.120;8.660;2023-07-31T05:07:00;24.40;53.60
13115;DHT22;6623;52.120;8.660;2023-07-31T05:09:25;24.30;53.60
13115;DHT22;6623;52.120;8.660;2023-07-31T05:11:51;24.30;53.60
13115;DHT22;6623;52.120;8.660;2023-07-31T05:14:16;24.30;53.60
13115;DHT22;6623;52.120;8.660;2023-07-31T05:16:42;24.30;53.60
13115;DHT22;6623;52.120;8.660;2023-07-31T05:19:07;24.30;53.60
13115;DHT22;6623;52.120;8.660;2023-07-31T05:21:33;24.30;53.70
13115;DHT22;6623;52.120;8.660;2023-07-31T05:23:58;24.30;53.60
13115;DHT22;6623;52.120;8.660;2023-07-31T05:26:24;24.30;53.60
13115;DHT22;6623;52.120;8.660;2023-07-31T05:28:49;24.30;53.70
13115;DHT22;6623;52.120;8.660;2023-07-31T05:31:15;24.30;53.60
13115;DHT22;6623;52.120;8.660;2023-07-31T05:33:40;24.30;53.70
13115;DHT22;6623;52.120;8.660;2023-07-31T05:36:06;24.30;53.70
13115;DHT22;6623;52.120;8.660;2023-07-31T05:38:31;24.30;53.70
13115;DHT22;6623;52.120;8.660;2023-07-31T05:40:57;24.30;53.80
13115;DHT22;6623;52.120;8.660;2023-07-31T05:43:22;24.30;53.80
13115;DHT22;6623;52.120;8.660;2023-07-31T05:45:48;24.30;53.80
13115;DHT22;6623;52.120;8.660;2023-07-31T05:48:14;24.30;53.80
13115;DHT22;6623;52.120;8.660;2023-07-31T05:50:39;24.30;53.80
13115;DHT22;6623;52.120;8.660;2023-07-31T05:53:05;24.30;53.80
13115;DHT22;6623;52.120;8.660;2023-07-31T05:55:31;24.30;53.80
13115;DHT22;6623;52.120;8.660;2023-07-31T05:57:57;24.30;53.70
13115;DHT22;6623;52.120;8.660;2023-07-31T06:00:22;24.30;53.80
13115;DHT22;6623;52.120;8.660;2023-07-31T06:02:48;24.30;53.80
13115;DHT22;6623;52.120;8.660;2023-07-31T06:05:14;24.30;53.70
13115;DHT22;6623;52.120;8.660;2023-07-31T06:07:40;24.30;53.80
13115;DHT22;6623;52.120;8.660;2023-07-31T06:10:06;24.30;53.80
13115;DHT22;6623;52.120;8.660;2023-07-31T06:12:32;24.30;53.80
13115;DHT22;6623;52.120;8.660;2023-07-31T06:14:58;24.30;53.80
13115;DHT22;6623;52.120;8.660;2023-07-31T06:17:24;24.30;53.80
13115;DHT22;6623;52.120;8.660;2023-07-31T06:19:49;24.30;53.80
13115;DHT22;6623;52.120;8.660;2023-07-31T06:22:15;24.30;53.80
13115;DHT22;6623;52.120;8.660;2023-07-31T06:24:41;24.30;53.80
13115;DHT22;6623;52.120;8.660;2023-07-31T06:27:06;24.30;53.80
13115;DHT22;6623;52.120;8.660;2023-07-31T06:29:32;24.30;53.80
13115;DHT22;6623;52.120;8.660;2023-07-31T06:31:58;24.30;53.80
13115;DHT22;6623;52.120;8.660;2023-07-31T06:34:23;24.30;53.70
13115;DHT22;6623;52.120;8.660;2023-07-31T06:36:49;24.30;53.80
13115;DHT22;6623;52.120;8.660;2023-07-31T06:39:14;24.30;53.80
13115;DHT22;6623;52.120;8.660;2023-07-31T06:41:40;24.30;53.80
13115;DHT22;6623;52.120;8.660;2023-07-31T06:44:06;24.30;53.80
13115;DHT22;6623;52.120;8.660;2023-07-31T06:46:31;24.30;53.80
13115;DHT22;6623;52.120;8.660;2023-07-31T06:48:57;24.30;53.80
13115;DHT22;6623;52.120;8.660;2023-07-31T06:51:22;24.30;53.80
13115;DHT22;6623;52.120;8.660;2023-07-31T06:53:48;24.30;53.80
13115;DHT22;6623;52.120;8.660;2023-07-31T06:56:13;24.30;53.80
13115;DHT22;6623;52.120;8.660;2023-07-31T06:58:39;24.30;53.80
13115;DHT22;6623;52.120;8.660;2023-07-31T07:01:05;24.30;53.80
13115;DHT22;6623;52.120;8.660;2023-07-31T07:03:30;24.30;53.80
13115;DHT22;6623;52.120;8.660;2023-07-31T07:05:56;24.30;53.80
13115;DHT22;6623;52.120;8.660;2023-07-31T07:08:21;24.30;53.80
13115;DHT22;6623;52.120;8.660;2023-07-31T07:10:47;24.30;53.80
13115;DHT22;6623;52.120;8.660;2023-07-31T07:13:13;24.30;53.80
13115;DHT22;6623;52.120;8.660;2023-07-31T07:15:39;24.30;53.80
13115;DHT22;6623;52.120;8.660;2023-07-31T07:18:04;24.30;53.80
13115;DHT22;6623;52.120;8.660;2023-07-31T07:20:30;24.30;53.80
13115;DHT22;6623;52.120;8.660;2023-07-31T07:22:55;24.30;53.80
13115;DHT22;6623;52.120;8.660;2023-07-31T07:25:21;24.30;53.80
13115;DHT22;6623;52.120;8.660;2023-07-31T07:27:47;24.30;53.80
13115;DHT22;6623;52.120;8.660;2023-07-31T07:30:12;24.30;53.80
13115;DHT22;6623;52.120;8.660;2023-07-31T07:32:39;24.30;53.80
13115;DHT22;6623;52.120;8.660;2023-07-31T07:35:05;24.30;53.80
13115;DHT22;6623;52.120;8.660;2023-07-31T07:37:31;24.30;53.80
13115;DHT22;6623;52.120;8.660;2023-07-31T07:39:57;24.30;53.80
13115;DHT22;6623;52.120;8.660;2023-07-31T07:42:22;24.30;53.80
13115;DHT22;6623;52.120;8.660;2023-07-31T07:44:48;24.30;53.70
13115;DHT22;6623;52.120;8.660;2023-07-31T07:47:13;24.30;53.80
13115;DHT22;6623;52.120;8.660;2023-07-31T07:49:39;24.30;53.80
13115;DHT22;6623;52.120;8.660;2023-07-31T07:52:05;24.30;53.80
13115;DHT22;6623;52.120;8.660;2023-07-31T07:54:30;24.30;53.80
13115;DHT22;6623;52.120;8.660;2023-07-31T07:56:56;24.30;53.80
13115;DHT22;6623;52.120;8.660;2023-07-31T07:59:22;24.30;53.80
13115;DHT22;6623;52.120;8.660;2023-07-31T08:01:47;24.30;53.80
13115;DHT22;6623;52.120;8.660;2023-07-31T08:04:13;24.30;53.80
13115;DHT22;6623;52.120;8.660;2023-07-31T08:06:38;24.30;53.80
13115;DHT22;6623;52.120;8.660;2023-07-31T08:09:04;24.30;53.80
13115;DHT22;6623;52.120;8.660;2023-07-31T08:11:32;24.30;53.80
13115;DHT22;6623;52.120;8.660;2023-07-31T08:13:58;24.30;53.80
13115;DHT22;6623;52.120;8.660;2023-07-31T08:16:23;24.30;53.80
13115;DHT22;6623;52.120;8.660;2023-07-31T08:18:49;24.30;53.80
13115;DHT22;6623;52.120;8.660;2023-07-31T08:21:14;24.30;53.70
13115;DHT22;6623;52.120;8.660;2023-07-31T08:23:40;24.30;53.80
13115;DHT22;6623;52.120;8.660;2023-07-31T08:26:06;24.30;53.80
13115;DHT22;6623;52.120;8.660;2023-07-31T08:28:31;24.30;53.80
13115;DHT22;6623;52.120;8.660;2023-07-31T08:30:57;24.30;53.80
13115;DHT22;6623;52.120;8.660;2023-07-31T08:33:22;24.30;53.80
13115;DHT22;6623;52.120;8.660;2023-07-31T08:35:48;24.30;53.80
13115;DHT22;6623;52.120;8.660;2023-07-31T08:38:14;24.30;53.80
13115;DHT22;6623;52.120;8.660;2023-07-31T08:40:39;24.30;53.80
13115;DHT22;6623;52.120;8.660;2023-07-31T08:43:05;24.30;53.80
13115;DHT22;6623;52.120;8.660;2023-07-31T08:45:32;24.30;53.80
13115;DHT22;6623;52.120;8.660;2023-07-31T08:47:58;24.40;53.80
13115;DHT22;6623;52.120;8.660;2023-07-31T08:50:24;24.30;53.80
13115;DHT22;6623;52.120;8.660;2023-07-31T08:52:51;24.30;53.80
13115;DHT22;6623;52.120;8.660;2023-07-31T08:55:17;24.40;53.90
13115;DHT22;6623;52.120;8.660;2023-07-31T08:57:43;24.40;53.80
13115;DHT22;6623;52.120;8.660;2023-07-31T09:00:10;24.30;53.80
13115;DHT22;6623;52.120;8.660;2023-07-31T09:02:54;24.30;53.80
13115;DHT22;6623;52.120;8.660;2023-07-31T09:05:21;24.30;53.80
13115;DHT22;6623;52.120;8.660;2023-07-31T09:07:47;24.30;53.90
13115;DHT22;6623;52.120;8.660;2023-07-31T09:10:14;24.30;53.90
13115;DHT22;6623;52.120;8.660;2023-07-31T09:12:40;24.40;54.00
13115;DHT22;6623;52.120;8.660;2023-07-31T09:15:06;24.30;53.90
13115;DHT22;6623;52.120;8.660;2023-07-31T09:17:36;24.30;53.90
13115;DHT22;6623;52.120;8.660;2023-07-31T09:20:19;24.30;54.00
13115;DHT22;6623;52.120;8.660;2023-07-31T09:22:46;24.30;54.00
13115;DHT22;6623;52.120;8.660;2023-07-31T09:25:22;24.30;54.00
13115;DHT22;6623;52.120;8.660;2023-07-31T09:30:14;24.30;54.00
13115;DHT22;6623;52.120;8.660;2023-07-31T09:32:40;24.30;54.00
13115;DHT22;6623;52.120;8.660;2023-07-31T09:35:27;24.40;54.10
13115;DHT22;6623;52.120;8.660;2023-07-31T09:38:13;24.30;54.10
13115;DHT22;6623;52.120;8.660;2023-07-31T09:40:44;24.30;54.10
13115;DHT22;6623;52.120;8.660;2023-07-31T09:43:20;24.30;54.10
13115;DHT22;6623;52.120;8.660;2023-07-31T09:45:47;24.30;54.20
13115;DHT22;6623;52.120;8.660;2023-07-31T09:48:17;24.30;54.20
13115;DHT22;6623;52.120;8.660;2023-07-31T09:50:45;24.30;54.20
13115;DHT22;6623;52.120;8.660;2023-07-31T09:53:10;24.30;54.20
13115;DHT22;6623;52.120;8.660;2023-07-31T09:55:37;24.30;54.30
13115;DHT22;6623;52.120;8.660;2023-07-31T09:58:05;24.30;54.20
13115;DHT22;6623;52.120;8.660;2023-07-31T10:00:31;24.30;54.30
13115;DHT22;6623;52.120;8.660;2023-07-31T10:02:59;24.30;54.30
13115;DHT22;6623;52.120;8.660;2023-07-31T10:05:34;24.30;54.30
13115;DHT22;6623;52.120;8.660;2023-07-31T10:08:00;24.30;54.30
13115;DHT22;6623;52.120;8.660;2023-07-31T10:10:26;24.30;54.40
13115;DHT22;6623;52.120;8.660;2023-07-31T10:12:53;24.30;54.40
13115;DHT22;6623;52.120;8.660;2023-07-31T10:15:19;24.30;54.40
13115;DHT22;6623;52.120;8.660;2023-07-31T10:17:47;24.30;54.40
13115;DHT22;6623;52.120;8.660;2023-07-31T10:20:14;24.30;54.40
13115;DHT22;6623;52.120;8.660;2023-07-31T10:22:42;24.30;54.40
13115;DHT22;6623;52.120;8.660;2023-07-31T10:25:09;24.30;54.40
13115;DHT22;6623;52.120;8.660;2023-07-31T10:27:39;24.30;54.40
13115;DHT22;6623;52.120;8.660;2023-07-31T10:30:08;24.30;54.50
13115;DHT22;6623;52.120;8.660;2023-07-31T10:32:34;24.30;54.50
13115;DHT22;6623;52.120;8.660;2023-07-31T10:35:02;24.30;54.50
13115;DHT22;6623;52.120;8.660;2023-07-31T10:37:35;24.30;54.60
13115;DHT22;6623;52.120;8.660;2023-07-31T10:40:04;24.30;54.60
13115;DHT22;6623;52.120;8.660;2023-07-31T10:42:35;24.30;54.60
13115;DHT22;6623;52.120;8.660;2023-07-31T10:45:05;24.30;54.60
13115;DHT22;6623;52.120;8.660;2023-07-31T10:47:44;24.30;54.60
13115;DHT22;6623;52.120;8.660;2023-07-31T10:50:19;24.30;54.60
13115;DHT22;6623;52.120;8.660;2023-07-31T10:52:52;24.30;54.60
13115;DHT22;6623;52.120;8.660;2023-07-31T10:57:50;24.30;54.70
13115;DHT22;6623;52.120;8.660;2023-07-31T11:00:24;24.30;54.70
13115;DHT22;6623;52.120;8.660;2023-07-31T11:03:08;24.30;54.70
13115;DHT22;6623;52.120;8.660;2023-07-31T11:06:00;24.30;54.80
13115;DHT22;6623;52.120;8.660;2023-07-31T11:08:32;24.30;54.80
13115;DHT22;6623;52.120;8.660;2023-07-31T11:11:05;24.30;54.90
13115;DHT22;6623;52.120;8.660;2023-07-31T11:13:33;24.30;55.00
13115;DHT22;6623;52.120;8.660;2023-07-31T11:15:59;24.30;55.00
13115;DHT22;6623;52.120;8.660;2023-07-31T11:18:26;24.30;55.00
13115;DHT22;6623;52.120;8.660;2023-07-31T11:20:53;24.30;55.00
13115;DHT22;6623;52.120;8.660;2023-07-31T11:23:19;24.30;55.10
13115;DHT22;6623;52.120;8.660;2023-07-31T11:25:45;24.30;55.70
13115;DHT22;6623;52.120;8.660;2023-07-31T11:28:12;24.30;55.10
13115;DHT22;6623;52.120;8.660;2023-07-31T11:30:39;24.30;55.10
13115;DHT22;6623;52.120;8.660;2023-07-31T11:33:06;24.30;55.10
13115;DHT22;6623;52.120;8.660;2023-07-31T11:35:33;24.30;55.20
13115;DHT22;6623;52.120;8.660;2023-07-31T11:37:59;24.30;55.20
13115;DHT22;6623;52.120;8.660;2023-07-31T11:40:24;24.30;55.20
13115;DHT22;6623;52.120;8.660;2023-07-31T11:42:58;24.30;55.20
13115;DHT22;6623;52.120;8.660;2023-07-31T11:45:27;24.30;55.20
13115;DHT22;6623;52.120;8.660;2023-07-31T11:47:56;24.30;55.30
13115;DHT22;6623;52.120;8.660;2023-07-31T11:50:23;24.30;55.30
13115;DHT22;6623;52.120;8.660;2023-07-31T11:53:04;24.30;55.30
13115;DHT22;6623;52.120;8.660;2023-07-31T11:55:33;24.30;55.30
13115;DHT22;6623;52.120;8.660;2023-07-31T11:57:59;24.30;55.30
13115;DHT22;6623;52.120;8.660;2023-07-31T12:00:26;24.30;55.30
13115;DHT22;6623;52.120;8.660;2023-07-31T12:02:53;24.30;55.30
13115;DHT22;6623;52.120;8.660;2023-07-31T12:05:18;24.30;55.40
13115;DHT22;6623;52.120;8.660;2023-07-31T12:07:51;24.30;55.40
13115;DHT22;6623;52.120;8.660;2023-07-31T12:10:30;24.30;55.50
13115;DHT22;6623;52.120;8.660;2023-07-31T12:12:58;24.30;55.50
13115;DHT22;6623;52.120;8.660;2023-07-31T12:15:38;24.30;56.20
13115;DHT22;6623;52.120;8.660;2023-07-31T12:18:06;24.30;55.60
13115;DHT22;6623;52.120;8.660;2023-07-31T12:20:32;24.30;55.70
13115;DHT22;6623;52.120;8.660;2023-07-31T12:22:58;24.30;55.70
13115;DHT22;6623;52.120;8.660;2023-07-31T12:25:32;24.30;55.70
13115;DHT22;6623;52.120;8.660;2023-07-31T12:27:58;24.30;55.80
13115;DHT22;6623;52.120;8.660;2023-07-31T12:30:29;24.30;55.70
13115;DHT22;6623;52.120;8.660;2023-07-31T12:32:57;24.20;55.70
13115;DHT22;6623;52.120;8.660;2023-07-31T12:35:23;24.30;55.70
13115;DHT22;6623;52.120;8.660;2023-07-31T12:37:48;24.30;55.70
13115;DHT22;6623;52.120;8.660;2023-07-31T12:40:14;24.30;55.70
13115;DHT22;6623;52.120;8.660;2023-07-31T12:42:41;24.30;55.80
13115;DHT22;6623;52.120;8.660;2023-07-31T12:45:07;24.30;55.80
13115;DHT22;6623;52.120;8.660;2023-07-31T12:47:33;24.30;55.80
13115;DHT22;6623;52.120;8.660;2023-07-31T12:49:58;24.30;55.80
13115;DHT22;6623;52.120;8.660;2023-07-31T12:52:24;24.30;55.90
13115;DHT22;6623;52.120;8.660;2023-07-31T12:54:49;24.30;55.80
13115;DHT22;6623;52.120;8.660;2023-07-31T12:57:15;24.30;56.10
13115;DHT22;6623;52.120;8.660;2023-07-31T12:59:40;24.30;56.50
13115;DHT22;6623;52.120;8.660;2023-07-31T13:02:06;24.20;56.70
13115;DHT22;6623;52.120;8.660;2023-07-31T13:04:31;24.20;57.00
13115;DHT22;6623;52.120;8.660;2023-07-31T13:06:57;24.10;57.30
13115;DHT22;6623;52.120;8.660;2023-07-31T13:09:23;24.10;57.50
13115;DHT22;6623;52.120;8.660;2023-07-31T13:11:49;24.10;57.70
13115;DHT22;6623;52.120;8.660;2023-07-31T13:14:14;24.10;57.80
13115;DHT22;6623;52.120;8.660;2023-07-31T13:16:40;24.10;57.80
13115;DHT22;6623;52.120;8.660;2023-07-31T13:19:05;24.10;57.80
13115;DHT22;6623;52.120;8.660;2023-07-31T13:21:31;24.10;57.70
13115;DHT22;6623;52.120;8.660;2023-07-31T13:23:56;24.10;57.60
13115;DHT22;6623;52.120;8.660;2023-07-31T13:26:23;24.10;57.60
13115;DHT22;6623;52.120;8.660;2023-07-31T13:28:48;24.10;57.50
13115;DHT22;6623;52.120;8.660;2023-07-31T13:31:14;24.20;57.50
13115;DHT22;6623;52.120;8.660;2023-07-31T13:33:40;24.20;57.40
13115;DHT22;6623;52.120;8.660;2023-07-31T13:36:05;24.20;57.40
13115;DHT22;6623;52.120;8.660;2023-07-31T13:38:31;24.20;57.30
13115;DHT22;6623;52.120;8.660;2023-07-31T13:40:56;24.20;57.30
13115;DHT22;6623;52.120;8.660;2023-07-31T13:43:22;24.20;57.20
13115;DHT22;6623;52.120;8.660;2023-07-31T13:45:47;24.30;57.30
13115;DHT22;6623;52.120;8.660;2023-07-31T13:48:13;24.30;57.20
13115;DHT22;6623;52.120;8.660;2023-07-31T13:50:38;24.20;57.10
13115;DHT22;6623;52.120;8.660;2023-07-31T13:53:04;24.20;57.00
13115;DHT22;6623;52.120;8.660;2023-07-31T13:55:30;24.30;57.10
13115;DHT22;6623;52.120;8.660;2023-07-31T13:57:55;24.30;57.00
13115;DHT22;6623;52.120;8.660;2023-07-31T14:00:21;24.30;57.00
13115;DHT22;6623;52.120;8.660;2023-07-31T14:02:46;24.30;57.00
13115;DHT22;6623;52.120;8.660;2023-07-31T14:05:12;24.30;56.90
13115;DHT22;6623;52.120;8.660;2023-07-31T14:07:37;24.30;56.90
13115;DHT22;6623;52.120;8.660;2023-07-31T14:10:03;24.30;56.80
13115;DHT22;6623;52.120;8.660;2023-07-31T14:12:29;24.30;56.80
13115;DHT22;6623;52.120;8.660;2023-07-31T14:14:55;24.30;56.80
13115;DHT22;6623;52.120;8.660;2023-07-31T14:17:21;24.30;56.70
13115;DHT22;6623;52.120;8.660;2023-07-31T14:19:47;24.30;56.70
13115;DHT22;6623;52.120;8.660;2023-07-31T14:22:12;24.30;56.80
13115;DHT22;6623;52.120;8.660;2023-07-31T14:24:38;24.30;56.70
13115;DHT22;6623;52.120;8.660;2023-07-31T14:27:04;24.30;56.70
13115;DHT22;6623;52.120;8.660;2023-07-31T14:29:30;24.30;56.70
13115;DHT22;6623;52.120;8.660;2023-07-31T14:31:55;24.30;56.70
13115;DHT22;6623;52.120;8.660;2023-07-31T14:34:21;24.30;56.80
13115;DHT22;6623;52.120;8.660;2023-07-31T14:36:46;24.30;56.70
13115;DHT22;6623;52.120;8.660;2023-07-31T14:39:12;24.30;56.80
13115;DHT22;6623;52.120;8.660;2023-07-31T14:41:38;24.30;56.80
13115;DHT22;6623;52.120;8.660;2023-07-31T14:44:03;24.30;56.70
13115;DHT22;6623;52.120;8.660;2023-07-31T14:46:29;24.30;56.70
13115;DHT22;6623;52.120;8.660;2023-07-31T14:48:54;24.30;56.70
13115;DHT22;6623;52.120;8.660;2023-07-31T14:51:20;24.30;56.70
13115;DHT22;6623;52.120;8.660;2023-07-31T14:53:46;24.30;56.70
13115;DHT22;6623;52.120;8.660;2023-07-31T14:56:12;24.30;56.70
13115;DHT22;6623;52.120;8.660;2023-07-31T14:58:38;24.30;56.70
13115;DHT22;6623;52.120;8.660;2023-07-31T15:01:03;24.30;56.70
13115;DHT22;6623;52.120;8.660;2023-07-31T15:03:29;24.30;56.70
13115;DHT22;6623;52.120;8.660;2023-07-31T15:05:54;24.30;56.70
13115;DHT22;6623;52.120;8.660;2023-07-31T15:08:20;24.30;56.70
13115;DHT22;6623;52.120;8.660;2023-07-31T15:10:46;24.30;56.70
13115;DHT22;6623;52.120;8.660;2023-07-31T15:13:11;24.30;56.70
13115;DHT22;6623;52.120;8.660;2023-07-31T15:15:37;24.30;56.70
13115;DHT22;6623;52.120;8.660;2023-07-31T15:18:02;24.30;56.70
13115;DHT22;6623;52.120;8.660;2023-07-31T15:20:28;24.30;56.70
13115;DHT22;6623;52.120;8.660;2023-07-31T15:22:54;24.30;56.70
13115;DHT22;6623;52.120;8.660;2023-07-31T15:25:20;24.30;56.60
13115;DHT22;6623;52.120;8.660;2023-07-31T15:27:45;24.30;56.60
13115;DHT22;6623;52.120;8.660;2023-07-31T15:30:11;24.30;56.60
13115;DHT22;6623;52.120;8.660;2023-07-31T15:32:37;24.30;56.70
13115;DHT22;6623;52.120;8.660;2023-07-31T15:35:03;24.30;56.70
13115;DHT22;6623;52.120;8.660;2023-07-31T15:37:29;24.30;56.70
13115;DHT22;6623;52.120;8.660;2023-07-31T15:39:54;24.30;56.70
13115;DHT22;6623;52.120;8.660;2023-07-31T15:42:20;24.30;56.70
13115;DHT22;6623;52.120;8.660;2023-07-31T15:44:45;24.30;56.70
13115;DHT22;6623;52.120;8.660;2023-07-31T15:47:11;24.30;56.70
13115;DHT22;6623;52.120;8.660;2023-07-31T15:49:37;24.30;56.70
13115;DHT22;6623;52.120;8.660;2023-07-31T15:52:02;24.30;56.70
13115;DHT22;6623;52.120;8.660;2023-07-31T15:54:28;24.30;56.70